createdAt,value
2019-02-12T00:01:47.356Z,98.10
2019-02-12T00:04:14.764Z,98.10
2019-02-12T00:06:42.250Z,98.10
2019-02-12T00:09:10.457Z,98.10
2019-02-12T00:11:37.940Z,98.00
2019-02-12T00:14:05.413Z,98.10
2019-02-12T00:16:32.963Z,98.20
2019-02-12T00:19:00.373Z,98.30
2019-02-12T00:21:27.836Z,98.50
2019-02-12T00:23:55.299Z,98.80
2019-02-12T00:26:22.626Z,99.00
2019-02-12T00:28:50.044Z,99.20
2019-02-12T00:31:17.983Z,99.30
2019-02-12T00:33:45.439Z,99.40
2019-02-12T00:36:12.896Z,99.60
2019-02-12T00:38:40.306Z,99.70
2019-02-12T00:41:07.662Z,99.80
2019-02-12T00:43:34.983Z,99.90
2019-02-12T00:46:02.556Z,99.90
2019-02-12T00:48:30.440Z,99.90
2019-02-12T00:50:58.195Z,99.90
2019-02-12T00:53:25.605Z,99.90
2019-02-12T00:55:53.241Z,99.70
2019-02-12T00:58:20.675Z,99.60
2019-02-12T01:00:48.359Z,99.50
2019-02-12T01:03:15.868Z,99.50
2019-02-12T01:05:43.407Z,99.50
2019-02-12T01:08:10.756Z,99.50
2019-02-12T01:10:38.159Z,99.50
2019-02-12T01:13:05.599Z,99.40
2019-02-12T01:15:33.343Z,99.60
2019-02-12T01:18:01.233Z,99.50
2019-02-12T01:20:28.597Z,99.60
2019-02-12T01:22:56.015Z,99.40
2019-02-12T01:25:23.371Z,99.40
2019-02-12T01:27:50.713Z,99.40
2019-02-12T01:30:18.169Z,99.40
2019-02-12T01:32:45.527Z,99.50
2019-02-12T01:35:12.855Z,99.60
2019-02-12T01:37:40.591Z,99.80
2019-02-12T01:40:10.218Z,99.80
2019-02-12T01:42:37.672Z,99.80
2019-02-12T01:45:06.149Z,99.70
2019-02-12T01:47:33.579Z,99.70
2019-02-12T01:50:00.918Z,99.60
2019-02-12T01:52:28.217Z,99.60
2019-02-12T01:54:55.672Z,99.50
2019-02-12T01:57:23.123Z,99.50
2019-02-12T01:59:50.540Z,99.40
2019-02-12T02:02:18.068Z,99.40
2019-02-12T02:04:45.559Z,99.40
2019-02-12T02:07:12.988Z,99.30
2019-02-12T02:09:40.713Z,99.30
2019-02-12T02:12:08.662Z,99.40
2019-02-12T02:14:36.251Z,99.40
2019-02-12T02:17:03.694Z,99.40
2019-02-12T02:19:31.437Z,99.40
2019-02-12T02:21:58.920Z,99.50
2019-02-12T02:24:26.335Z,99.50
2019-02-12T02:26:54.019Z,99.40
2019-02-12T02:29:21.362Z,99.30
2019-02-12T02:31:48.740Z,99.30
2019-02-12T02:34:16.168Z,99.40
2019-02-12T02:36:43.724Z,99.30
2019-02-12T02:39:11.130Z,99.20
2019-02-12T02:41:38.449Z,99.10
2019-02-12T02:44:05.843Z,99.10
2019-02-12T02:46:33.423Z,99.10
2019-02-12T02:49:01.012Z,99.00
2019-02-12T02:51:28.434Z,98.90
2019-02-12T02:53:56.076Z,98.90
2019-02-12T02:56:23.692Z,98.90
2019-02-12T02:58:51.388Z,98.80
2019-02-12T03:01:18.783Z,98.80
2019-02-12T03:03:46.200Z,98.90
2019-02-12T03:06:13.631Z,98.90
2019-02-12T03:08:41.051Z,99.30
2019-02-12T03:11:08.464Z,98.90
2019-02-12T03:13:36.006Z,98.90
2019-02-12T03:16:03.396Z,98.80
2019-02-12T03:18:30.834Z,98.90
2019-02-12T03:20:58.139Z,98.80
2019-02-12T03:23:25.494Z,98.90
2019-02-12T03:25:52.915Z,98.90
2019-02-12T03:28:20.363Z,98.90
2019-02-12T03:30:47.932Z,98.90
2019-02-12T03:33:15.361Z,98.90
2019-02-12T03:35:42.774Z,99.00
2019-02-12T03:38:10.127Z,99.00
2019-02-12T03:40:37.642Z,99.00
2019-02-12T03:43:05.370Z,98.90
2019-02-12T03:45:32.925Z,98.90
2019-02-12T03:48:00.550Z,98.90
2019-02-12T03:50:27.950Z,99.00
2019-02-12T03:52:55.506Z,99.00
2019-02-12T03:55:22.977Z,99.00
2019-02-12T03:57:50.321Z,99.00
2019-02-12T04:00:17.886Z,99.00
2019-02-12T04:03:05.451Z,99.10
2019-02-12T04:05:33.290Z,99.10
2019-02-12T04:08:01.132Z,99.20
2019-02-12T04:10:28.531Z,99.10
2019-02-12T04:12:55.901Z,99.10
2019-02-12T04:15:23.332Z,99.10
2019-02-12T04:17:50.673Z,99.00
2019-02-12T04:20:18.146Z,99.10
2019-02-12T04:22:45.515Z,99.10
2019-02-12T04:25:12.963Z,99.10
2019-02-12T04:27:40.390Z,99.10
2019-02-12T04:30:07.879Z,99.20
2019-02-12T04:32:35.478Z,99.20
2019-02-12T04:35:03.082Z,99.20
2019-02-12T04:37:30.673Z,99.20
2019-02-12T04:39:58.403Z,99.30
2019-02-12T04:42:25.725Z,99.30
2019-02-12T04:44:54.323Z,99.30
2019-02-12T04:47:21.761Z,99.20
2019-02-12T04:49:49.184Z,99.20
2019-02-12T04:52:16.592Z,99.10
2019-02-12T04:54:43.915Z,99.10
2019-02-12T04:57:11.378Z,99.00
2019-02-12T04:59:38.783Z,99.20
2019-02-12T05:02:06.226Z,98.90
2019-02-12T05:04:33.750Z,98.90
2019-02-12T05:07:01.348Z,98.80
2019-02-12T05:09:29.265Z,98.70
2019-02-12T05:12:05.940Z,98.70
2019-02-12T05:14:33.526Z,98.70
2019-02-12T05:17:00.979Z,98.70
2019-02-12T05:19:28.319Z,98.60
2019-02-12T05:21:55.973Z,98.70
2019-02-12T05:24:23.505Z,98.60
2019-02-12T05:26:50.916Z,98.70
2019-02-12T05:29:18.579Z,98.80
2019-02-12T05:31:45.850Z,98.90
2019-02-12T05:34:13.424Z,99.00
2019-02-12T05:36:41.107Z,99.10
2019-02-12T05:39:08.613Z,99.30
2019-02-12T05:41:35.919Z,99.30
2019-02-12T05:44:03.587Z,99.30
2019-02-12T05:46:30.964Z,99.40
2019-02-12T05:48:58.453Z,99.40
2019-02-12T05:51:26.151Z,99.40
2019-02-12T05:53:53.613Z,99.40
2019-02-12T05:56:21.365Z,99.50
2019-02-12T05:58:48.952Z,99.50
2019-02-12T06:01:18.096Z,99.50
2019-02-12T06:03:45.815Z,99.60
2019-02-12T06:06:13.488Z,99.60
2019-02-12T06:08:40.802Z,99.80
2019-02-12T06:11:08.859Z,99.90
2019-02-12T06:13:36.403Z,99.90
2019-02-12T06:16:04.075Z,99.90
2019-02-12T06:18:31.420Z,99.90
2019-02-12T06:20:58.852Z,99.90
2019-02-12T06:23:26.317Z,99.90
2019-02-12T06:25:53.757Z,99.90
2019-02-12T06:28:21.212Z,99.90
2019-02-12T06:30:51.821Z,99.90
2019-02-12T06:33:19.415Z,99.90
2019-02-12T06:35:46.806Z,99.90
2019-02-12T06:38:14.357Z,99.90
2019-02-12T06:40:41.776Z,99.90
2019-02-12T06:43:09.277Z,99.90
2019-02-12T06:45:36.710Z,99.90
2019-02-12T06:48:03.979Z,99.90
2019-02-12T06:50:31.285Z,99.90
2019-02-12T06:52:58.692Z,99.90
2019-02-12T06:55:26.156Z,99.90
2019-02-12T06:57:53.623Z,99.90
2019-02-12T07:00:20.989Z,99.90
2019-02-12T07:03:10.421Z,99.90
2019-02-12T07:05:39.483Z,99.90
2019-02-12T07:08:33.894Z,99.90
2019-02-12T07:11:20.191Z,99.90
2019-02-12T07:14:01.309Z,99.90
2019-02-12T07:16:58.587Z,99.90
2019-02-12T07:19:42.882Z,99.90
2019-02-12T07:23:10.534Z,99.90
2019-02-12T07:25:51.138Z,99.90
2019-02-12T07:28:30.818Z,99.70
2019-02-12T07:31:39.916Z,99.70
2019-02-12T07:34:37.588Z,99.60
2019-02-12T07:37:13.287Z,99.50
2019-02-12T07:40:23.466Z,99.40
2019-02-12T07:43:21.597Z,99.40
2019-02-12T07:46:26.690Z,99.30
2019-02-12T07:49:01.210Z,99.40
2019-02-12T07:51:57.788Z,99.40
2019-02-12T07:55:10.161Z,99.40
2019-02-12T07:58:40.791Z,99.20
2019-02-12T08:01:55.742Z,99.30
2019-02-12T08:05:05.189Z,99.30
2019-02-12T08:08:22.174Z,99.40
2019-02-12T08:11:06.683Z,99.10
2019-02-12T08:14:03.313Z,98.90
2019-02-12T08:16:53.771Z,99.00
2019-02-12T08:19:45.263Z,98.60
2019-02-12T08:22:59.553Z,98.70
2019-02-12T08:26:06.806Z,98.40
2019-02-12T08:29:02.809Z,98.20
2019-02-12T08:32:10.284Z,98.30
2019-02-12T08:35:05.982Z,98.10
2019-02-12T08:38:06.113Z,98.00
2019-02-12T08:41:36.474Z,97.90
2019-02-12T08:44:30.338Z,97.60
2019-02-12T08:47:53.265Z,97.50
2019-02-12T08:50:52.193Z,97.60
2019-02-12T08:54:15.543Z,97.20
2019-02-12T08:56:56.456Z,97.60
2019-02-12T09:00:03.613Z,97.00
2019-02-12T09:02:58.715Z,97.00
2019-02-12T09:06:04.059Z,96.60
2019-02-12T09:09:08.816Z,96.40
2019-02-12T09:11:58.847Z,96.40
2019-02-12T09:14:45.940Z,96.00
2019-02-12T09:18:12.996Z,95.40
2019-02-12T09:21:27.943Z,95.60
2019-02-12T09:24:28.199Z,95.30
2019-02-12T09:27:44.822Z,94.30
2019-02-12T09:30:29.357Z,95.20
2019-02-12T09:33:41.125Z,95.00
2019-02-12T09:36:33.103Z,94.10
2019-02-12T09:39:44.345Z,94.30
2019-02-12T09:42:33.899Z,94.20
2019-02-12T09:45:46.108Z,93.80
2019-02-12T09:48:36.140Z,93.90
2019-02-12T09:51:55.952Z,93.30
2019-02-12T09:54:59.320Z,93.90
2019-02-12T09:58:06.948Z,93.60
2019-02-12T10:00:41.345Z,92.30
2019-02-12T10:04:05.768Z,92.90
2019-02-12T10:07:14.672Z,93.50
2019-02-12T10:10:05.199Z,92.90
2019-02-12T10:12:37.362Z,93.20
2019-02-12T10:15:45.128Z,92.60
2019-02-12T10:18:39.306Z,92.50
2019-02-12T10:21:44.568Z,91.40
2019-02-12T10:24:45.174Z,92.40
2019-02-12T10:27:34.718Z,91.50
2019-02-12T10:30:18.764Z,91.80
2019-02-12T10:32:46.173Z,91.80
2019-02-12T10:35:13.513Z,91.70
2019-02-12T10:37:40.923Z,91.40
2019-02-12T10:40:08.298Z,91.20
2019-02-12T10:42:35.761Z,90.90
2019-02-12T10:45:03.270Z,91.20
2019-02-12T10:47:30.593Z,91.60
2019-02-12T10:49:59.608Z,91.10
2019-02-12T10:52:27.104Z,91.70
2019-02-12T10:54:54.532Z,91.10
2019-02-12T10:57:22.355Z,90.70
2019-02-12T10:59:49.825Z,91.00
2019-02-12T11:02:17.264Z,90.90
2019-02-12T11:04:44.703Z,90.20
2019-02-12T11:07:12.424Z,89.30
2019-02-12T11:09:39.900Z,90.10
2019-02-12T11:12:07.417Z,90.50
2019-02-12T11:14:34.996Z,90.00
2019-02-12T11:17:02.438Z,90.10
2019-02-12T11:19:30.101Z,90.00
2019-02-12T11:21:57.417Z,88.90
2019-02-12T11:24:25.074Z,88.80
2019-02-12T11:26:52.525Z,88.70
2019-02-12T11:29:19.966Z,89.40
2019-02-12T11:31:47.451Z,88.60
2019-02-12T11:34:14.892Z,86.50
2019-02-12T11:36:42.320Z,87.90
2019-02-12T11:39:09.715Z,88.30
2019-02-12T11:41:37.218Z,88.20
2019-02-12T11:44:04.535Z,86.00
2019-02-12T11:46:31.942Z,86.20
2019-02-12T11:48:59.602Z,85.40
2019-02-12T11:51:27.229Z,85.20
2019-02-12T11:53:54.682Z,87.00
2019-02-12T11:56:22.238Z,85.60
2019-02-12T11:58:49.613Z,86.10
2019-02-12T12:01:19.883Z,83.50
2019-02-12T12:03:47.336Z,82.40
2019-02-12T12:06:15.375Z,84.20
2019-02-12T12:08:42.786Z,84.30
2019-02-12T12:11:10.131Z,83.20
2019-02-12T12:13:37.654Z,82.80
2019-02-12T12:16:05.078Z,82.20
2019-02-12T12:18:32.478Z,80.40
2019-02-12T12:20:59.811Z,81.30
2019-02-12T12:23:27.246Z,79.40
2019-02-12T12:25:54.873Z,81.80
2019-02-12T12:28:22.438Z,81.60
2019-02-12T12:30:49.863Z,81.30
2019-02-12T12:33:17.270Z,79.70
2019-02-12T12:35:44.771Z,80.40
2019-02-12T12:38:12.167Z,80.70
2019-02-12T12:40:39.866Z,78.60
2019-02-12T12:43:07.255Z,79.20
2019-02-12T12:45:34.675Z,80.10
2019-02-12T12:48:02.121Z,78.00
2019-02-12T12:50:29.557Z,80.10
2019-02-12T12:52:57.099Z,78.00
2019-02-12T12:55:25.426Z,76.90
2019-02-12T12:57:53.120Z,75.10
2019-02-12T13:00:20.471Z,75.10
2019-02-12T13:02:48.111Z,75.50
2019-02-12T13:05:15.513Z,75.80
2019-02-12T13:07:43.008Z,75.50
2019-02-12T13:10:12.276Z,75.90
2019-02-12T13:12:39.701Z,75.60
2019-02-12T13:15:08.934Z,76.10
2019-02-12T13:17:37.022Z,74.60
2019-02-12T13:20:06.543Z,73.50
2019-02-12T13:22:33.982Z,75.60
2019-02-12T13:25:08.323Z,75.40
2019-02-12T13:27:31.043Z,74.20
2019-02-12T13:30:00.131Z,72.60
2019-02-12T13:32:27.902Z,73.70
2019-02-12T13:34:55.369Z,68.50
2019-02-12T13:37:23.146Z,66.80
2019-02-12T13:39:50.613Z,68.90
2019-02-12T13:42:18.274Z,68.60
2019-02-12T13:44:45.706Z,71.10
2019-02-12T13:47:13.251Z,68.80
2019-02-12T13:49:40.687Z,68.70
2019-02-12T13:52:08.203Z,70.00
2019-02-12T13:54:35.633Z,71.30
2019-02-12T13:57:03.164Z,69.50
2019-02-12T13:59:30.527Z,70.00
2019-02-12T14:01:58.299Z,70.70
2019-02-12T14:04:25.753Z,67.90
2019-02-12T14:06:53.246Z,70.70
2019-02-12T14:09:21.353Z,71.30
2019-02-12T14:11:49.183Z,73.10
2019-02-12T14:14:17.020Z,73.40
2019-02-12T14:16:44.964Z,73.10
2019-02-12T14:19:12.756Z,73.40
2019-02-12T14:21:40.342Z,70.50
2019-02-12T14:24:08.113Z,70.00
2019-02-12T14:26:35.818Z,69.40
2019-02-12T14:29:03.644Z,70.00
2019-02-12T14:31:31.065Z,71.50
2019-02-12T14:33:58.592Z,70.00
2019-02-12T14:36:26.187Z,69.90
2019-02-12T14:38:53.786Z,71.20
2019-02-12T14:41:21.295Z,72.60
2019-02-12T14:43:48.736Z,74.40
2019-02-12T14:46:16.447Z,73.00
2019-02-12T14:48:43.821Z,71.00
2019-02-12T14:51:11.269Z,72.60
2019-02-12T14:53:39.102Z,71.50
2019-02-12T14:56:11.334Z,70.50
2019-02-12T14:58:35.977Z,69.60
2019-02-12T15:01:04.484Z,69.10
2019-02-12T15:03:32.264Z,70.90
2019-02-12T15:05:59.674Z,71.30
2019-02-12T15:08:27.275Z,72.20
2019-02-12T15:10:55.116Z,71.80
2019-02-12T15:13:22.658Z,72.50
2019-02-12T15:15:50.110Z,73.60
2019-02-12T15:18:17.636Z,73.60
2019-02-12T15:20:45.135Z,73.00
2019-02-12T15:23:12.539Z,73.70
2019-02-12T15:25:42.047Z,72.80
2019-02-12T15:28:09.406Z,72.00
2019-02-12T15:30:36.891Z,74.10
2019-02-12T15:33:04.455Z,74.60
2019-02-12T15:35:31.936Z,73.50
2019-02-12T15:37:59.328Z,75.30
2019-02-12T15:40:27.261Z,74.50
2019-02-12T15:42:55.052Z,74.30
2019-02-12T15:45:22.587Z,74.90
2019-02-12T15:47:50.382Z,73.90
2019-02-12T15:50:17.833Z,73.10
2019-02-12T15:52:45.561Z,74.80
2019-02-12T15:55:13.186Z,73.30
2019-02-12T15:57:43.137Z,72.80
2019-02-12T16:00:15.677Z,75.00
2019-02-12T16:02:44.129Z,74.80
2019-02-12T16:05:13.041Z,75.80
2019-02-12T16:07:42.629Z,76.60
2019-02-12T16:10:14.829Z,77.30
2019-02-12T16:12:44.355Z,77.00
2019-02-12T16:15:13.856Z,78.20
2019-02-12T16:17:41.395Z,79.10
2019-02-12T16:20:10.190Z,77.70
2019-02-12T16:22:38.068Z,78.40
2019-02-12T16:25:06.247Z,79.20
2019-02-12T16:27:33.709Z,81.60
2019-02-12T16:30:01.527Z,81.90
2019-02-12T16:32:29.400Z,81.20
2019-02-12T16:34:57.333Z,82.30
2019-02-12T16:37:25.157Z,82.40
2019-02-12T16:39:52.594Z,82.90
2019-02-12T16:42:20.439Z,85.10
2019-02-12T16:44:47.940Z,85.20
2019-02-12T16:47:15.346Z,87.60
2019-02-12T16:49:42.819Z,87.90
2019-02-12T16:52:10.448Z,88.80
2019-02-12T16:54:37.882Z,90.10
2019-02-12T16:57:05.640Z,90.70
2019-02-12T16:59:32.988Z,91.40
2019-02-12T17:02:00.464Z,91.70
2019-02-12T17:04:27.975Z,91.90
2019-02-12T17:06:55.598Z,92.70
2019-02-12T17:09:23.313Z,92.80
2019-02-12T17:11:50.910Z,93.00
2019-02-12T17:14:18.798Z,93.40
2019-02-12T17:16:46.379Z,93.30
2019-02-12T17:19:13.942Z,93.00
2019-02-12T17:21:41.719Z,92.70
2019-02-12T17:24:09.418Z,92.00
2019-02-12T17:26:36.821Z,91.90
2019-02-12T17:29:04.275Z,91.90
2019-02-12T17:31:31.819Z,91.80
2019-02-12T17:33:59.592Z,91.80
2019-02-12T17:36:27.244Z,92.10
2019-02-12T17:38:54.799Z,92.30
2019-02-12T17:41:22.757Z,91.70
2019-02-12T17:43:50.438Z,91.60
2019-02-12T17:46:18.072Z,91.60
2019-02-12T17:48:45.591Z,91.70
2019-02-12T17:51:13.156Z,92.10
2019-02-12T17:53:41.435Z,92.90
2019-02-12T17:56:09.020Z,93.40
2019-02-12T17:58:36.717Z,93.40
2019-02-12T18:01:04.725Z,93.30
2019-02-12T18:03:32.715Z,93.40
2019-02-12T18:06:00.180Z,93.20
2019-02-12T18:08:27.828Z,93.20
2019-02-12T18:10:55.364Z,93.20
2019-02-12T18:13:23.308Z,93.70
2019-02-12T18:15:51.011Z,94.20
2019-02-12T18:18:18.448Z,94.10
2019-02-12T18:20:46.041Z,94.30
2019-02-12T18:23:13.494Z,94.40
2019-02-12T18:25:41.029Z,94.20
2019-02-12T18:28:08.501Z,94.10
2019-02-12T18:30:36.011Z,94.00
2019-02-12T18:33:03.540Z,94.20
2019-02-12T18:35:31.090Z,93.80
2019-02-12T18:37:58.695Z,93.50
2019-02-12T18:40:26.308Z,93.50
2019-02-12T18:42:53.726Z,93.60
2019-02-12T18:45:21.568Z,93.60
2019-02-12T18:47:49.013Z,93.70
2019-02-12T18:50:16.521Z,94.00
2019-02-12T18:52:44.048Z,94.10
2019-02-12T18:55:11.990Z,94.10
2019-02-12T18:57:39.574Z,94.30
2019-02-12T19:00:10.122Z,94.60
2019-02-12T19:02:37.709Z,94.50
2019-02-12T19:05:06.440Z,94.50
2019-02-12T19:07:33.902Z,94.50
2019-02-12T19:10:01.372Z,94.80
2019-02-12T19:12:29.047Z,94.80
2019-02-12T19:14:56.477Z,94.90
2019-02-12T19:17:23.961Z,95.00
2019-02-12T19:19:51.565Z,95.20
2019-02-12T19:22:19.024Z,95.30
2019-02-12T19:24:46.586Z,95.50
2019-02-12T19:27:14.182Z,95.50
2019-02-12T19:29:42.279Z,95.40
2019-02-12T19:32:09.730Z,95.30
2019-02-12T19:34:37.144Z,95.30
2019-02-12T19:37:04.752Z,95.30
2019-02-12T19:39:32.560Z,95.30
2019-02-12T19:42:00.042Z,95.40
2019-02-12T19:44:27.591Z,95.50
2019-02-12T19:46:55.472Z,95.90
2019-02-12T19:49:23.106Z,96.40
2019-02-12T19:51:50.845Z,96.60
2019-02-12T19:54:18.343Z,96.50
2019-02-12T19:56:45.816Z,96.50
2019-02-12T19:59:13.303Z,96.40
2019-02-12T20:01:40.929Z,96.30
2019-02-12T20:04:24.315Z,96.20
2019-02-12T20:06:51.904Z,96.30
2019-02-12T20:09:22.990Z,96.10
2019-02-12T20:11:50.728Z,96.20
2019-02-12T20:14:18.486Z,96.30
2019-02-12T20:16:46.373Z,96.30
2019-02-12T20:19:13.831Z,96.60
2019-02-12T20:21:41.410Z,96.60
2019-02-12T20:24:09.218Z,96.80
2019-02-12T20:26:36.646Z,96.60
2019-02-12T20:29:04.191Z,96.60
2019-02-12T20:31:32.099Z,96.70
2019-02-12T20:33:59.893Z,96.80
2019-02-12T20:36:27.382Z,96.70
2019-02-12T20:38:54.844Z,96.60
2019-02-12T20:41:22.663Z,96.40
2019-02-12T20:43:50.535Z,96.90
2019-02-12T20:46:17.990Z,97.10
2019-02-12T20:48:45.480Z,97.70
2019-02-12T20:51:12.937Z,97.30
2019-02-12T20:53:40.378Z,97.20
2019-02-12T20:56:08.230Z,97.10
2019-02-12T20:58:35.618Z,97.00
2019-02-12T21:01:03.085Z,97.00
2019-02-12T21:03:30.554Z,97.10
2019-02-12T21:05:58.462Z,97.00
2019-02-12T21:08:25.896Z,97.10
2019-02-12T21:10:53.651Z,97.00
2019-02-12T21:13:21.188Z,97.00
2019-02-12T21:15:49.188Z,96.90
2019-02-12T21:18:17.149Z,97.00
2019-02-12T21:20:44.731Z,96.90
2019-02-12T21:23:12.161Z,96.90
2019-02-12T21:25:39.578Z,97.00
2019-02-12T21:28:07.025Z,97.00
2019-02-12T21:30:34.596Z,97.00
2019-02-12T21:33:02.423Z,97.30
2019-02-12T21:35:29.802Z,97.40
2019-02-12T21:37:57.599Z,97.30
2019-02-12T21:40:25.005Z,97.20
2019-02-12T21:42:52.403Z,97.10
2019-02-12T21:45:20.187Z,97.40
2019-02-12T21:47:48.003Z,97.40
2019-02-12T21:50:15.688Z,97.30
2019-02-12T21:52:43.131Z,97.30
2019-02-12T21:55:12.347Z,97.10
2019-02-12T21:57:39.950Z,97.70
2019-02-12T22:00:10.000Z,97.80
2019-02-12T22:02:37.402Z,97.50
2019-02-12T22:05:05.952Z,97.50
2019-02-12T22:07:34.716Z,97.50
2019-02-12T22:10:02.553Z,97.40
2019-02-12T22:12:30.230Z,97.30
2019-02-12T22:14:57.856Z,97.20
2019-02-12T22:17:25.314Z,97.30
2019-02-12T22:19:52.778Z,98.00
2019-02-12T22:22:20.227Z,98.20
2019-02-12T22:24:48.143Z,98.40
2019-02-12T22:27:15.598Z,98.50
2019-02-12T22:29:42.923Z,98.60
2019-02-12T22:32:10.349Z,98.60
2019-02-12T22:34:37.783Z,98.50
2019-02-12T22:37:05.252Z,98.60
2019-02-12T22:39:32.869Z,98.50
2019-02-12T22:42:00.260Z,98.20
2019-02-12T22:44:27.791Z,98.10
2019-02-12T22:46:55.299Z,97.90
2019-02-12T22:49:22.685Z,98.10
2019-02-12T22:51:50.095Z,98.10
2019-02-12T22:54:17.590Z,98.20
2019-02-12T22:56:45.019Z,98.00
2019-02-12T22:59:12.459Z,98.10
2019-02-12T23:01:40.110Z,98.40
2019-02-12T23:04:07.563Z,98.30
2019-02-12T23:06:35.059Z,98.30
2019-02-12T23:09:04.428Z,98.30
2019-02-12T23:11:32.171Z,98.20
2019-02-12T23:13:59.759Z,98.10
2019-02-12T23:16:27.370Z,97.90
2019-02-12T23:18:55.365Z,98.00
2019-02-12T23:21:22.742Z,97.80
2019-02-12T23:23:50.293Z,98.00
2019-02-12T23:26:18.096Z,97.90
2019-02-12T23:28:45.445Z,97.80
2019-02-12T23:31:13.101Z,98.00
2019-02-12T23:33:40.796Z,98.00
2019-02-12T23:36:08.271Z,98.00
2019-02-12T23:38:35.958Z,98.00
2019-02-12T23:41:03.947Z,98.10
2019-02-12T23:43:31.332Z,98.10
2019-02-12T23:45:59.020Z,98.10
2019-02-12T23:48:26.537Z,98.20
2019-02-12T23:50:54.008Z,98.30
2019-02-12T23:53:21.386Z,98.40
2019-02-12T23:55:49.087Z,98.30
2019-02-12T23:58:16.938Z,98.40
